createdAt,value
2022-09-07T00:00:46.588Z,9.443597
2022-09-07T00:01:46.587Z,9.443582
2022-09-07T00:02:46.624Z,9.443554
2022-09-07T00:03:46.588Z,9.443570
2022-09-07T00:04:46.652Z,9.443610
2022-09-07T00:05:46.578Z,9.443696
2022-09-07T00:06:46.556Z,9.443671
2022-09-07T00:07:46.540Z,9.443635
2022-09-07T00:08:47.585Z,9.443660
2022-09-07T00:09:46.550Z,9.443652
2022-09-07T00:10:46.531Z,9.443676
2022-09-07T00:11:46.534Z,9.443681
2022-09-07T00:12:46.511Z,9.443699
2022-09-07T00:13:46.515Z,9.443656
2022-09-07T00:14:46.480Z,9.443657
2022-09-07T00:15:47.513Z,9.443702
2022-09-07T00:16:46.488Z,9.443680
2022-09-07T00:17:46.483Z,9.443692
2022-09-07T00:18:46.711Z,9.443700
2022-09-07T00:19:46.460Z,9.443707
2022-09-07T00:20:46.452Z,9.443727
2022-09-07T00:21:46.446Z,9.443726
2022-09-07T00:22:46.435Z,9.443722
2022-09-07T00:23:46.467Z,9.443735
2022-09-07T00:24:46.459Z,9.443717
2022-09-07T00:25:47.261Z,9.443707
2022-09-07T00:26:46.428Z,9.443699
2022-09-07T00:27:46.416Z,9.443719
2022-09-07T00:28:46.439Z,9.443751
2022-09-07T00:29:46.443Z,9.443748
2022-09-07T00:30:46.395Z,9.443728
2022-09-07T00:31:46.456Z,9.443741
2022-09-07T00:32:46.383Z,9.443684
2022-09-07T00:33:46.411Z,9.443707
2022-09-07T00:34:46.368Z,9.443764
2022-09-07T00:35:46.385Z,9.443787
2022-09-07T00:36:46.352Z,9.443767
2022-09-07T00:37:46.351Z,9.443800
2022-09-07T00:38:46.415Z,9.443785
2022-09-07T00:39:46.396Z,9.443731
2022-09-07T00:40:46.344Z,9.443746
2022-09-07T00:41:46.331Z,9.443787
2022-09-07T00:42:46.327Z,9.443787
2022-09-07T00:43:46.313Z,9.443788
2022-09-07T00:44:46.299Z,9.443786
2022-09-07T00:45:46.307Z,9.443787
2022-09-07T00:46:46.354Z,9.443736
2022-09-07T00:47:46.323Z,9.443780
2022-09-07T00:48:46.275Z,9.443810
2022-09-07T00:49:46.289Z,9.443808
2022-09-07T00:50:46.265Z,9.443797
2022-09-07T00:51:46.262Z,9.443769
2022-09-07T00:52:46.480Z,9.443734
2022-09-07T00:53:46.247Z,9.443740
2022-09-07T00:54:46.248Z,9.443729
2022-09-07T00:55:46.253Z,9.443771
2022-09-07T00:56:46.239Z,9.443766
2022-09-07T00:57:46.228Z,9.443749
2022-09-07T00:58:46.233Z,9.443751
2022-09-07T00:59:46.217Z,9.443780
2022-09-07T01:00:46.188Z,9.443799
2022-09-07T01:01:46.355Z,9.443688
2022-09-07T01:02:46.360Z,9.443735
2022-09-07T01:03:46.189Z,9.443778
2022-09-07T01:04:46.177Z,9.443721
2022-09-07T01:05:46.178Z,9.443694
2022-09-07T01:06:46.160Z,9.443718
2022-09-07T01:07:47.033Z,9.443721
2022-09-07T01:08:46.257Z,9.443758
2022-09-07T01:09:46.148Z,9.443810
2022-09-07T01:10:46.132Z,9.443786
2022-09-07T01:11:46.129Z,9.443728
2022-09-07T01:12:46.120Z,9.443645
2022-09-07T01:13:46.116Z,9.443651
2022-09-07T01:14:46.129Z,9.443727
2022-09-07T01:15:46.144Z,9.443686
2022-09-07T01:16:46.100Z,9.443777
2022-09-07T01:17:46.108Z,9.443740
2022-09-07T01:18:46.090Z,9.443632
2022-09-07T01:19:46.086Z,9.443682
2022-09-07T01:20:46.072Z,9.443678
2022-09-07T01:21:46.063Z,9.443699
2022-09-07T01:22:46.047Z,9.443713
2022-09-07T01:23:46.055Z,9.443776
2022-09-07T01:24:46.071Z,9.443763
2022-09-07T01:25:46.037Z,9.443767
2022-09-07T01:26:46.036Z,9.443773
2022-09-07T01:27:46.028Z,9.443732
2022-09-07T01:28:46.020Z,9.443780
2022-09-07T01:29:46.027Z,9.443770
2022-09-07T01:30:46.045Z,9.443744
2022-09-07T01:31:45.999Z,9.443717
2022-09-07T01:32:46.008Z,9.443721
2022-09-07T01:33:45.982Z,9.443705
2022-09-07T01:34:45.999Z,9.443747
2022-09-07T01:35:45.992Z,9.443748
2022-09-07T01:36:45.960Z,9.443714
2022-09-07T01:37:45.958Z,9.443725
2022-09-07T01:38:45.950Z,9.443733
2022-09-07T01:39:45.967Z,9.443775
2022-09-07T01:40:45.946Z,9.443694
2022-09-07T01:41:45.927Z,9.443754
2022-09-07T01:42:45.927Z,9.443777
2022-09-07T01:43:45.916Z,9.443792
2022-09-07T01:44:45.923Z,9.443726
2022-09-07T01:45:45.902Z,9.443697
2022-09-07T01:46:45.990Z,9.443690
2022-09-07T01:47:45.921Z,9.443721
2022-09-07T01:48:45.879Z,9.443680
2022-09-07T01:49:45.875Z,9.443685
2022-09-07T01:50:45.871Z,9.443722
2022-09-07T01:51:45.882Z,9.443736
2022-09-07T01:52:45.855Z,9.443760
2022-09-07T01:53:45.860Z,9.443726
2022-09-07T01:54:45.843Z,9.443584
2022-09-07T01:55:46.563Z,9.443633
2022-09-07T01:56:45.827Z,9.443657
2022-09-07T01:57:45.843Z,9.443714
2022-09-07T01:58:45.816Z,9.443708
2022-09-07T01:59:45.819Z,9.443729
2022-09-07T02:00:45.806Z,9.443740
2022-09-07T02:01:45.867Z,9.443752
2022-09-07T02:02:45.859Z,9.443693
2022-09-07T02:03:45.809Z,9.443720
2022-09-07T02:04:45.770Z,9.443728
2022-09-07T02:05:45.778Z,9.443635
2022-09-07T02:06:45.767Z,9.443742
2022-09-07T02:07:45.785Z,9.443729
2022-09-07T02:08:45.747Z,9.443660
2022-09-07T02:09:45.746Z,9.443709
2022-09-07T02:10:45.747Z,9.443725
2022-09-07T02:11:45.733Z,9.443760
2022-09-07T02:12:45.726Z,9.443814
2022-09-07T02:13:45.711Z,9.443871
2022-09-07T02:14:49.372Z,9.443898
2022-09-07T02:15:47.763Z,9.443892
2022-09-07T02:16:45.682Z,9.443822
2022-09-07T02:17:45.699Z,9.443760
2022-09-07T02:18:45.691Z,9.443722
2022-09-07T02:19:45.679Z,9.443682
2022-09-07T02:20:45.678Z,9.443697
2022-09-07T02:21:45.666Z,9.443718
2022-09-07T02:22:45.665Z,9.443757
2022-09-07T02:23:45.658Z,9.443789
2022-09-07T02:24:45.651Z,9.443782
2022-09-07T02:25:45.630Z,9.443770
2022-09-07T02:26:45.623Z,9.443751
2022-09-07T02:27:45.615Z,9.443808
2022-09-07T02:28:45.616Z,9.443708
2022-09-07T02:29:45.643Z,9.443728
2022-09-07T02:30:45.677Z,9.443677
2022-09-07T02:31:45.607Z,9.443645
2022-09-07T02:32:45.602Z,9.443603
2022-09-07T02:33:45.651Z,9.443586
2022-09-07T02:34:45.590Z,9.443536
2022-09-07T02:35:45.594Z,9.443482
2022-09-07T02:36:45.575Z,9.443471
2022-09-07T02:37:45.584Z,9.443493
2022-09-07T02:38:45.556Z,9.443573
2022-09-07T02:39:45.619Z,9.443643
2022-09-07T02:40:45.570Z,9.443702
2022-09-07T02:41:45.578Z,9.443702
2022-09-07T02:42:45.531Z,9.443693
2022-09-07T02:43:45.522Z,9.443733
2022-09-07T02:44:45.525Z,9.443690
2022-09-07T02:45:45.526Z,9.443711
2022-09-07T02:46:45.610Z,9.443723
2022-09-07T02:47:45.515Z,9.443707
2022-09-07T02:48:45.482Z,9.443699
2022-09-07T02:49:45.486Z,9.443647
2022-09-07T02:50:45.482Z,9.443615
2022-09-07T02:51:45.490Z,9.443642
2022-09-07T02:52:45.466Z,9.443705
2022-09-07T02:53:45.458Z,9.443697
2022-09-07T02:54:45.450Z,9.443615
2022-09-07T02:55:45.445Z,9.443638
2022-09-07T02:56:45.442Z,9.443686
2022-09-07T02:57:45.426Z,9.443691
2022-09-07T02:58:45.585Z,9.443722
2022-09-07T02:59:45.426Z,9.443775
2022-09-07T03:00:45.435Z,9.443741
2022-09-07T03:01:45.433Z,9.443684
2022-09-07T03:02:45.436Z,9.443719
2022-09-07T03:03:45.407Z,9.443685
2022-09-07T03:04:45.402Z,9.443645
2022-09-07T03:05:45.377Z,9.443736
2022-09-07T03:06:45.370Z,9.443718
2022-09-07T03:07:45.366Z,9.443724
2022-09-07T03:08:45.380Z,9.443725
2022-09-07T03:09:45.408Z,9.443793
2022-09-07T03:10:45.346Z,9.443748
2022-09-07T03:11:45.350Z,9.443827
2022-09-07T03:12:45.329Z,9.443763
2022-09-07T03:13:45.334Z,9.443715
2022-09-07T03:14:45.338Z,9.443706
2022-09-07T03:15:45.370Z,9.443753
2022-09-07T03:16:45.302Z,9.443685
2022-09-07T03:17:45.325Z,9.443721
2022-09-07T03:18:45.299Z,9.443688
2022-09-07T03:19:45.289Z,9.443716
2022-09-07T03:20:45.305Z,9.443666
2022-09-07T03:21:45.276Z,9.443725
2022-09-07T03:22:45.289Z,9.443732
2022-09-07T03:23:47.809Z,9.443694
2022-09-07T03:24:46.262Z,9.443793
2022-09-07T03:25:45.245Z,9.443771
2022-09-07T03:26:45.253Z,9.443768
2022-09-07T03:28:17.694Z,9.443871
2022-09-07T03:28:45.233Z,9.443723
2022-09-07T03:29:45.225Z,9.443729
2022-09-07T03:30:45.342Z,9.443781
2022-09-07T03:31:45.214Z,9.443748
2022-09-07T03:32:45.234Z,9.443716
2022-09-07T03:33:45.258Z,9.443723
2022-09-07T03:34:45.203Z,9.443732
2022-09-07T03:35:45.193Z,9.443711
2022-09-07T03:36:45.196Z,9.443735
2022-09-07T03:37:45.178Z,9.443671
2022-09-07T03:38:45.190Z,9.443643
2022-09-07T03:39:45.247Z,9.443686
2022-09-07T03:40:45.157Z,9.443589
2022-09-07T03:41:45.153Z,9.443647
2022-09-07T03:42:45.149Z,9.443572
2022-09-07T03:43:45.146Z,9.443594
2022-09-07T03:44:45.168Z,9.443589
2022-09-07T03:45:45.180Z,9.443666
2022-09-07T03:46:45.134Z,9.443749
2022-09-07T03:47:45.120Z,9.443621
2022-09-07T03:48:45.117Z,9.443536
2022-09-07T03:49:45.157Z,9.443446
2022-09-07T03:50:45.197Z,9.443404
2022-09-07T03:51:45.102Z,9.443458
2022-09-07T03:52:45.085Z,9.443439
2022-09-07T03:53:45.094Z,9.443651
2022-09-07T03:54:45.083Z,9.443606
2022-09-07T03:55:45.086Z,9.443613
2022-09-07T03:56:45.073Z,9.443719
2022-09-07T03:57:45.058Z,9.443710
2022-09-07T03:58:45.050Z,9.443578
2022-09-07T03:59:45.058Z,9.443404
2022-09-07T04:00:45.078Z,9.443666
2022-09-07T04:01:45.112Z,9.443665
2022-09-07T04:02:45.111Z,9.443837
2022-09-07T04:03:45.013Z,9.443788
2022-09-07T04:04:45.008Z,9.443686
2022-09-07T04:05:45.021Z,9.443699
2022-09-07T04:06:45.017Z,9.443616
2022-09-07T04:07:44.997Z,9.443699
2022-09-07T04:08:44.985Z,9.443757
2022-09-07T04:09:45.025Z,9.443544
2022-09-07T04:10:44.976Z,9.443599
2022-09-07T04:11:44.981Z,9.443612
2022-09-07T04:12:44.981Z,9.443620
2022-09-07T04:13:45.017Z,9.443598
2022-09-07T04:14:44.968Z,9.443671
2022-09-07T04:15:44.952Z,9.443670
2022-09-07T04:16:45.050Z,9.443746
2022-09-07T04:17:44.939Z,9.443620
2022-09-07T04:18:44.940Z,9.443570
2022-09-07T04:19:44.917Z,9.443565
2022-09-07T04:20:44.924Z,9.443624
2022-09-07T04:21:44.908Z,9.443534
2022-09-07T04:22:44.951Z,9.443565
2022-09-07T04:23:44.903Z,9.443662
2022-09-07T04:24:44.885Z,9.443387
2022-09-07T04:25:44.894Z,9.443706
2022-09-07T04:26:44.879Z,9.443670
2022-09-07T04:27:44.888Z,9.443688
2022-09-07T04:28:44.934Z,9.443731
2022-09-07T04:29:44.863Z,9.443576
2022-09-07T04:30:45.038Z,9.443597
2022-09-07T04:31:44.851Z,9.443629
2022-09-07T04:32:44.836Z,9.443647
2022-09-07T04:33:44.839Z,9.443690
2022-09-07T04:34:44.831Z,9.443633
2022-09-07T04:35:46.760Z,9.443619
2022-09-07T04:36:44.819Z,9.443620
2022-09-07T04:37:44.809Z,9.443640
2022-09-07T04:38:44.792Z,9.443711
2022-09-07T04:39:45.641Z,9.443700
2022-09-07T04:40:44.789Z,9.443643
2022-09-07T04:41:44.796Z,9.443533
2022-09-07T04:42:44.789Z,9.443540
2022-09-07T04:43:44.760Z,9.443519
2022-09-07T04:44:44.769Z,9.443612
2022-09-07T04:45:44.788Z,9.443679
2022-09-07T04:46:44.749Z,9.443708
2022-09-07T04:47:44.745Z,9.443682
2022-09-07T04:48:44.740Z,9.443720
2022-09-07T04:49:44.737Z,9.443709
2022-09-07T04:50:44.729Z,9.443733
2022-09-07T04:51:44.761Z,9.443682
2022-09-07T04:52:44.784Z,9.443667
2022-09-07T04:53:45.796Z,9.443671
2022-09-07T04:54:44.710Z,9.443671
2022-09-07T04:55:44.767Z,9.443630
2022-09-07T04:56:44.698Z,9.443577
2022-09-07T04:57:44.726Z,9.443595
2022-09-07T04:58:45.602Z,9.443632
2022-09-07T04:59:44.692Z,9.443704
2022-09-07T05:00:44.700Z,9.443739
2022-09-07T05:01:44.715Z,9.443755
2022-09-07T05:02:45.603Z,9.443758
2022-09-07T05:03:44.671Z,9.443790
2022-09-07T05:04:44.656Z,9.443708
2022-09-07T05:05:44.637Z,9.443725
2022-09-07T05:06:44.618Z,9.443720
2022-09-07T05:07:44.642Z,9.443719
2022-09-07T05:08:44.624Z,9.443722
2022-09-07T05:09:44.610Z,9.443793
2022-09-07T05:10:44.588Z,9.443746
2022-09-07T05:11:44.585Z,9.443777
2022-09-07T05:12:44.605Z,9.443771
2022-09-07T05:13:44.593Z,9.443773
2022-09-07T05:14:44.571Z,9.443765
2022-09-07T05:15:44.559Z,9.443745
2022-09-07T05:16:44.636Z,9.443765
2022-09-07T05:17:44.562Z,9.443743
2022-09-07T05:18:44.567Z,9.443802
2022-09-07T05:19:44.590Z,9.443753
2022-09-07T05:20:44.594Z,9.443748
2022-09-07T05:21:44.522Z,9.443764
2022-09-07T05:22:44.547Z,9.443760
2022-09-07T05:23:44.563Z,9.443736
2022-09-07T05:24:44.510Z,9.443730
2022-09-07T05:25:44.537Z,9.443747
2022-09-07T05:26:44.498Z,9.443753
2022-09-07T05:27:44.520Z,9.443740
2022-09-07T05:28:44.488Z,9.443692
2022-09-07T05:31:46.482Z,9.443707
2022-09-07T05:32:44.483Z,9.443703
2022-09-07T05:34:48.523Z,9.443804
2022-09-07T05:35:44.457Z,9.443791
2022-09-07T05:36:44.462Z,9.443769
2022-09-07T05:37:44.466Z,9.443775
2022-09-07T05:38:44.422Z,9.443757
2022-09-07T05:39:44.507Z,9.443801
2022-09-07T05:40:44.420Z,9.443753
2022-09-07T05:41:45.097Z,9.443748
2022-09-07T05:42:44.418Z,9.443755
2022-09-07T05:44:46.558Z,9.443741
2022-09-07T05:45:44.424Z,9.443784
2022-09-07T05:46:44.381Z,9.443729
2022-09-07T05:47:44.372Z,9.443742
2022-09-07T05:48:44.361Z,9.443754
2022-09-07T05:49:44.372Z,9.443727
2022-09-07T05:50:44.353Z,9.443710
2022-09-07T05:51:44.332Z,9.443748
2022-09-07T05:52:44.336Z,9.443745
2022-09-07T05:53:44.351Z,9.443695
2022-09-07T05:54:44.369Z,9.443728
2022-09-07T05:55:44.325Z,9.443709
2022-09-07T05:56:44.325Z,9.443745
2022-09-07T05:57:45.088Z,9.443735
2022-09-07T05:58:44.297Z,9.443742
2022-09-07T05:59:44.309Z,9.443757
2022-09-07T06:00:44.309Z,9.443756
2022-09-07T06:01:44.343Z,9.443738
2022-09-07T06:02:44.360Z,9.443744
2022-09-07T06:03:44.268Z,9.443692
2022-09-07T06:04:44.268Z,9.443723
2022-09-07T06:05:44.257Z,9.443708
2022-09-07T06:06:59.140Z,9.443740
2022-09-07T06:07:47.023Z,9.443725
2022-09-07T06:08:44.242Z,9.443728
2022-09-07T06:10:46.263Z,9.443735
2022-09-07T06:11:44.232Z,9.443693
2022-09-07T06:12:45.647Z,9.443656
2022-09-07T06:13:44.200Z,9.443685
2022-09-07T06:14:44.308Z,9.443709
2022-09-07T06:15:44.209Z,9.443725
2022-09-07T06:16:45.109Z,9.443698
2022-09-07T06:17:44.308Z,9.443754
2022-09-07T06:18:44.201Z,9.443724
2022-09-07T06:19:44.196Z,9.443706
2022-09-07T06:20:44.224Z,9.443722
2022-09-07T06:21:44.160Z,9.443738
2022-09-07T06:22:44.160Z,9.443691
2022-09-07T06:23:44.154Z,9.443712
2022-09-07T06:24:44.140Z,9.443769
2022-09-07T06:25:44.193Z,9.443759
2022-09-07T06:26:44.136Z,9.443776
2022-09-07T06:27:44.121Z,9.443713
2022-09-07T06:28:46.634Z,9.443756
2022-09-07T06:29:44.116Z,9.443753
2022-09-07T06:30:45.967Z,9.443794
2022-09-07T06:32:46.279Z,9.443737
2022-09-07T06:33:44.080Z,9.443792
2022-09-07T06:34:44.090Z,9.443781
2022-09-07T06:35:44.067Z,9.443735
2022-09-07T06:36:44.079Z,9.443789
2022-09-07T06:37:44.095Z,9.443755
2022-09-07T06:38:44.056Z,9.443797
2022-09-07T06:39:44.143Z,9.443841
2022-09-07T06:40:44.056Z,9.443931
2022-09-07T06:41:59.349Z,9.443776
2022-09-07T06:42:46.068Z,9.443739
2022-09-07T06:43:46.017Z,9.443762
2022-09-07T06:44:45.011Z,9.443828
2022-09-07T06:45:44.081Z,9.443807
2022-09-07T06:47:46.024Z,9.443788
2022-09-07T06:48:44.572Z,9.443779
2022-09-07T06:49:43.992Z,9.443742
2022-09-07T06:50:43.980Z,9.443729
2022-09-07T06:51:43.999Z,9.443765
2022-09-07T06:53:46.110Z,9.443718
2022-09-07T06:54:59.591Z,9.443702
2022-09-07T06:55:45.963Z,9.443704
2022-09-07T06:56:44.028Z,9.443616
2022-09-07T06:57:43.948Z,9.443645
2022-09-07T06:58:44.089Z,9.443700
2022-09-07T06:59:43.919Z,9.443674
2022-09-07T07:00:44.026Z,9.443663
2022-09-07T07:01:43.924Z,9.443745
2022-09-07T07:02:43.912Z,9.443736
2022-09-07T07:03:43.972Z,9.443691
2022-09-07T07:04:43.894Z,9.443728
2022-09-07T07:05:43.909Z,9.443756
2022-09-07T07:06:43.912Z,9.443765
2022-09-07T07:07:43.881Z,9.443764
2022-09-07T07:08:43.893Z,9.443618
2022-09-07T07:09:43.876Z,9.443738
2022-09-07T07:10:43.865Z,9.443716
2022-09-07T07:11:43.908Z,9.443638
2022-09-07T07:14:33.820Z,9.443834
2022-09-07T07:15:31.749Z,9.443783
2022-09-07T07:16:30.767Z,9.443657
2022-09-07T07:17:30.739Z,9.443715
2022-09-07T07:18:30.749Z,9.443655
2022-09-07T07:19:30.708Z,9.443601
2022-09-07T07:20:30.723Z,9.443707
2022-09-07T07:21:48.532Z,9.443711
2022-09-07T07:22:48.147Z,9.443771
2022-09-07T07:23:32.710Z,9.443680
2022-09-07T07:24:30.696Z,9.443759
2022-09-07T07:25:30.680Z,9.443753
2022-09-07T07:26:30.681Z,9.443674
2022-09-07T07:27:30.677Z,9.443717
2022-09-07T07:29:32.669Z,9.443763
2022-09-07T07:30:30.654Z,9.443705
2022-09-07T07:31:30.645Z,9.443664
2022-09-07T07:32:30.626Z,9.443645
2022-09-07T07:33:30.918Z,9.443635
2022-09-07T07:34:30.686Z,9.443675
2022-09-07T07:35:30.608Z,9.443685
2022-09-07T07:36:30.642Z,9.443661
2022-09-07T07:37:30.602Z,9.443559
2022-09-07T07:40:34.109Z,9.443661
2022-09-07T07:42:03.516Z,9.443667
2022-09-07T07:42:32.604Z,9.443780
2022-09-07T07:43:30.649Z,9.443770
2022-09-07T07:44:30.581Z,9.443795
2022-09-07T07:46:32.717Z,9.443706
2022-09-07T07:47:30.537Z,9.443610
2022-09-07T07:48:30.627Z,9.443666
2022-09-07T07:49:30.497Z,9.443669
2022-09-07T07:50:32.464Z,9.443637
2022-09-07T07:51:30.568Z,9.443680
2022-09-07T07:53:41.640Z,9.443631
2022-09-07T07:54:32.497Z,9.443646
2022-09-07T07:55:45.860Z,9.443777
2022-09-07T07:56:32.469Z,9.443815
2022-09-07T07:57:31.517Z,9.443857
2022-09-07T07:58:30.463Z,9.443786
2022-09-07T07:59:30.466Z,9.443819
2022-09-07T08:00:50.744Z,9.443788
2022-09-07T08:01:33.524Z,9.443819
2022-09-07T08:02:30.486Z,9.443807
2022-09-07T08:03:30.616Z,9.443824
2022-09-07T08:04:30.442Z,9.443755
2022-09-07T08:05:30.410Z,9.443775
2022-09-07T08:06:30.454Z,9.443866
2022-09-07T08:07:30.444Z,9.443794
2022-09-07T08:08:30.398Z,9.443806
2022-09-07T08:09:30.447Z,9.443845
2022-09-07T08:10:30.387Z,9.443752
2022-09-07T08:11:30.395Z,9.443973
2022-09-07T08:12:30.391Z,9.444007
2022-09-07T08:13:30.373Z,9.444067
2022-09-07T08:14:30.363Z,9.443800
2022-09-07T08:15:30.388Z,9.443867
2022-09-07T08:16:30.395Z,9.443769
2022-09-07T08:17:30.339Z,9.443639
2022-09-07T08:18:32.599Z,9.443717
2022-09-07T08:19:30.338Z,9.443768
2022-09-07T08:20:30.347Z,9.443743
2022-09-07T08:21:31.147Z,9.443748
2022-09-07T08:22:34.293Z,9.443781
2022-09-07T08:23:31.410Z,9.443811
2022-09-07T08:24:30.955Z,9.443693
2022-09-07T08:25:30.335Z,9.443665
2022-09-07T08:26:30.295Z,9.443719
2022-09-07T08:27:30.282Z,9.443748
2022-09-07T08:28:30.303Z,9.443744
2022-09-07T08:29:33.790Z,9.443836
2022-09-07T08:30:32.426Z,9.443831
2022-09-07T08:31:30.413Z,9.443746
2022-09-07T08:32:30.326Z,9.443717
2022-09-07T08:33:30.313Z,9.443736
2022-09-07T08:34:30.257Z,9.443780
2022-09-07T08:35:30.244Z,9.443769
2022-09-07T08:36:30.286Z,9.443813
2022-09-07T08:37:30.953Z,9.443811
2022-09-07T08:38:30.267Z,9.443783
2022-09-07T08:39:30.224Z,9.443743
2022-09-07T08:40:30.278Z,9.443747
2022-09-07T08:41:30.250Z,9.443780
2022-09-07T08:42:30.250Z,9.443767
2022-09-07T08:43:31.037Z,9.443736
2022-09-07T08:44:30.185Z,9.443716
2022-09-07T08:45:30.198Z,9.443735
2022-09-07T08:46:30.276Z,9.443738
2022-09-07T08:47:30.203Z,9.443730
2022-09-07T08:48:30.160Z,9.443734
2022-09-07T08:49:30.299Z,9.443722
2022-09-07T08:50:30.157Z,9.443715
2022-09-07T08:51:30.152Z,9.443706
2022-09-07T08:52:30.972Z,9.443760
2022-09-07T08:53:31.135Z,9.443738
2022-09-07T08:54:30.138Z,9.443711
2022-09-07T08:55:30.146Z,9.443727
2022-09-07T08:56:33.580Z,9.443693
2022-09-07T08:57:31.197Z,9.443719
2022-09-07T08:58:47.578Z,9.443674
2022-09-07T08:59:32.130Z,9.443702
2022-09-07T09:00:30.118Z,9.443701
2022-09-07T09:01:31.636Z,9.443624
2022-09-07T09:02:35.132Z,9.443674
2022-09-07T09:03:32.622Z,9.443711
2022-09-07T09:04:31.470Z,9.443743
2022-09-07T09:05:30.224Z,9.443812
2022-09-07T09:06:30.149Z,9.443871
2022-09-07T09:07:30.091Z,9.443724
2022-09-07T09:08:30.173Z,9.443742
2022-09-07T09:09:30.044Z,9.443738
2022-09-07T09:10:30.047Z,9.443755
2022-09-07T09:11:30.136Z,9.443768
2022-09-07T09:12:32.377Z,9.443760
2022-09-07T09:13:31.159Z,9.443744
2022-09-07T09:15:30.187Z,9.443747
2022-09-07T09:16:30.065Z,9.443723
2022-09-07T09:17:30.010Z,9.443725
2022-09-07T09:18:30.040Z,9.443717
2022-09-07T09:19:30.028Z,9.443726
2022-09-07T09:20:30.003Z,9.443733
2022-09-07T09:21:29.971Z,9.443717
2022-09-07T09:22:30.004Z,9.443718
2022-09-07T09:23:30.021Z,9.443740
2022-09-07T09:24:29.993Z,9.443737
2022-09-07T09:25:29.941Z,9.443748
2022-09-07T09:26:30.952Z,9.443749
2022-09-07T09:27:29.942Z,9.443718
2022-09-07T09:29:01.914Z,9.443713
2022-09-07T09:29:29.949Z,9.443695
2022-09-07T09:30:29.930Z,9.443729
2022-09-07T09:31:29.972Z,9.443758
2022-09-07T09:32:29.917Z,9.443725
2022-09-07T09:33:29.977Z,9.443701
2022-09-07T09:34:33.398Z,9.443719
2022-09-07T09:35:31.931Z,9.443714
2022-09-07T09:36:29.907Z,9.443740
2022-09-07T09:38:29.985Z,9.443754
2022-09-07T09:39:30.001Z,9.443699
2022-09-07T09:40:29.956Z,9.443561
2022-09-07T09:41:29.876Z,9.443741
2022-09-07T09:42:29.859Z,9.443713
2022-09-07T09:43:30.859Z,9.443736
2022-09-07T09:44:29.874Z,9.443670
2022-09-07T09:45:30.002Z,9.443669
2022-09-07T09:46:29.870Z,9.443624
2022-09-07T09:47:30.374Z,9.443739
2022-09-07T09:48:30.883Z,9.443681
2022-09-07T09:49:29.852Z,9.443727
2022-09-07T09:52:34.973Z,9.443681
2022-09-07T09:53:31.810Z,9.443742
2022-09-07T09:54:29.821Z,9.443720
2022-09-07T09:55:35.045Z,9.443648
2022-09-07T09:56:31.817Z,9.443621
2022-09-07T09:57:29.798Z,9.443540
2022-09-07T10:00:32.277Z,9.443692
2022-09-07T10:01:30.769Z,9.443671
2022-09-07T10:04:31.743Z,9.443609
2022-09-07T10:05:29.740Z,9.443596
2022-09-07T10:06:29.739Z,9.443679
2022-09-07T10:07:29.722Z,9.443671
2022-09-07T10:08:29.798Z,9.443621
2022-09-07T10:09:29.707Z,9.443678
2022-09-07T10:10:29.699Z,9.443695
2022-09-07T10:12:05.039Z,9.443606
2022-09-07T10:12:31.690Z,9.443643
2022-09-07T10:13:30.720Z,9.443718
2022-09-07T10:14:29.710Z,9.443744
2022-09-07T10:15:29.691Z,9.443718
2022-09-07T10:16:29.732Z,9.443675
2022-09-07T10:17:30.534Z,9.443632
2022-09-07T10:18:29.766Z,9.443678
2022-09-07T10:19:29.660Z,9.443689
2022-09-07T10:20:29.660Z,9.443697
2022-09-07T10:21:29.652Z,9.443699
2022-09-07T10:22:29.632Z,9.443712
2022-09-07T10:23:29.624Z,9.443684
2022-09-07T10:24:29.633Z,9.443671
2022-09-07T10:25:29.597Z,9.443680
2022-09-07T10:26:29.625Z,9.443700
2022-09-07T10:27:29.590Z,9.443746
2022-09-07T10:29:06.359Z,9.443707
2022-09-07T10:29:31.592Z,9.443682
2022-09-07T10:30:29.586Z,9.443695
2022-09-07T10:31:29.617Z,9.443686
2022-09-07T10:32:29.550Z,9.443713
2022-09-07T10:33:29.554Z,9.443691
2022-09-07T10:34:29.575Z,9.443677
2022-09-07T10:35:29.555Z,9.443700
2022-09-07T10:36:29.535Z,9.443689
2022-09-07T10:37:29.561Z,9.443696
2022-09-07T10:38:29.539Z,9.443683
2022-09-07T10:39:29.551Z,9.443714
2022-09-07T10:40:29.531Z,9.443701
2022-09-07T10:41:29.524Z,9.443675
2022-09-07T10:42:29.555Z,9.443712
2022-09-07T10:43:29.542Z,9.443668
2022-09-07T10:44:29.507Z,9.443670
2022-09-07T10:45:29.611Z,9.443694
2022-09-07T10:46:58.749Z,9.443710
2022-09-07T10:47:31.564Z,9.443705
2022-09-07T10:48:29.577Z,9.443686
2022-09-07T10:49:29.480Z,9.443670
2022-09-07T10:50:29.475Z,9.443674
2022-09-07T10:51:29.467Z,9.443729
2022-09-07T10:52:29.503Z,9.443674
2022-09-07T10:53:42.844Z,9.443702
2022-09-07T10:54:31.705Z,9.443696
2022-09-07T10:55:29.461Z,9.443731
2022-09-07T10:56:29.446Z,9.443726
2022-09-07T10:57:29.447Z,9.443672
2022-09-07T11:00:07.615Z,9.443565
2022-09-07T11:00:31.423Z,9.443624
2022-09-07T11:01:29.513Z,9.443707
2022-09-07T11:02:29.436Z,9.443732
2022-09-07T11:03:29.445Z,9.443680
2022-09-07T11:04:29.398Z,9.443843
2022-09-07T11:05:35.161Z,9.443726
2022-09-07T11:06:31.386Z,9.443609
2022-09-07T11:07:29.402Z,9.443829
2022-09-07T11:08:29.573Z,9.443761
2022-09-07T11:09:29.393Z,9.443847
2022-09-07T11:10:29.366Z,9.443926
2022-09-07T11:12:31.355Z,9.443892
2022-09-07T11:13:29.359Z,9.443724
2022-09-07T11:14:29.393Z,9.443762
2022-09-07T11:15:29.381Z,9.443757
2022-09-07T11:16:57.976Z,9.443740
2022-09-07T11:17:31.592Z,9.443688
2022-09-07T11:18:30.231Z,9.443650
2022-09-07T11:19:37.641Z,9.443682
2022-09-07T11:20:31.337Z,9.443771
2022-09-07T11:21:57.652Z,9.443708
2022-09-07T11:22:31.329Z,9.443661
2022-09-07T11:23:29.314Z,9.443623
2022-09-07T11:24:29.322Z,9.443656
2022-09-07T11:25:29.718Z,9.443605
2022-09-07T11:26:30.305Z,9.443592
2022-09-07T11:27:29.291Z,9.443633
2022-09-07T11:28:29.345Z,9.443572
2022-09-07T11:29:29.682Z,9.443577
2022-09-07T11:30:30.321Z,9.443691
2022-09-07T11:31:29.324Z,9.443750
2022-09-07T11:32:29.273Z,9.443705
2022-09-07T11:33:29.262Z,9.443658
2022-09-07T11:34:29.253Z,9.443668
2022-09-07T11:35:29.269Z,9.443680
2022-09-07T11:36:29.249Z,9.443650
2022-09-07T11:37:29.241Z,9.443617
2022-09-07T11:38:29.387Z,9.443633
2022-09-07T11:39:29.323Z,9.443627
2022-09-07T11:40:29.282Z,9.443615
2022-09-07T11:41:29.227Z,9.443617
2022-09-07T11:42:44.617Z,9.443562
2022-09-07T11:43:31.359Z,9.443538
2022-09-07T11:44:29.189Z,9.443595
2022-09-07T11:45:29.225Z,9.443646
2022-09-07T11:46:29.276Z,9.443563
2022-09-07T11:47:29.220Z,9.443563
2022-09-07T11:48:30.853Z,9.443676
2022-09-07T11:49:30.200Z,9.443654
2022-09-07T11:50:29.190Z,9.443630
2022-09-07T11:51:29.173Z,9.443604
2022-09-07T11:52:29.199Z,9.443671
2022-09-07T11:53:29.170Z,9.443669
2022-09-07T11:54:29.144Z,9.443715
2022-09-07T11:55:29.156Z,9.443805
2022-09-07T11:56:29.144Z,9.443748
2022-09-07T11:57:29.155Z,9.443736
2022-09-07T11:58:29.192Z,9.443708
2022-09-07T11:59:32.492Z,9.443653
2022-09-07T12:00:30.146Z,9.443567
2022-09-07T12:01:29.116Z,9.443601
2022-09-07T12:02:55.400Z,9.443567
2022-09-07T12:03:31.377Z,9.443611
2022-09-07T12:04:29.157Z,9.443577
2022-09-07T12:05:29.228Z,9.443666
2022-09-07T12:06:29.124Z,9.443659
2022-09-07T12:07:29.108Z,9.443660
2022-09-07T12:08:29.177Z,9.443673
2022-09-07T12:09:29.093Z,9.443675